ルレオ の空港の天気 - METARとTAF

Lulea / Kallax ( ESPA / LLA ) - スウェーデン ルレオ
飛行場実況気象(Metar)
観測時間05/23 02:50 CEST (05/23 00:50 UTC)
風向・風速北北西 5m/s
視程10km以上
天気現象
なし
気温8℃
湿度49%
気圧1021hPa
METARESPA 230050Z AUTO 34010KT 9999 NCD 08/M02 Q1021
過去の天気等 Google飛行場航空写真 Wunderground天気予報

過去48時間のMETAR

飛行場予報(TAF)
発表時間: 5/22 22:30 CEST (5/22 20:30 UTC)
予報対象時間: 22日23時 CEST ~ 23日1時 CEST
風向・風速北北西 6m/s
視程10km以上
なし
TAF ESPA 222030Z 2221/2223 33012KT CAVOK